sensor_id;sensor_type;location;lat;lon;timestamp;P1;durP1;ratioP1;P2;durP2;ratioP2
34403;SDS011;23116;47.660;9.126;2023-05-16T00:00:44;1.70;;;1.60;;
34403;SDS011;23116;47.660;9.126;2023-05-16T00:03:12;2.90;;;1.40;;
34403;SDS011;23116;47.660;9.126;2023-05-16T00:05:39;1.83;;;1.45;;
34403;SDS011;23116;47.660;9.126;2023-05-16T00:08:06;1.88;;;1.60;;
34403;SDS011;23116;47.660;9.126;2023-05-16T00:10:33;1.90;;;1.80;;
34403;SDS011;23116;47.660;9.126;2023-05-16T00:13:01;1.65;;;1.40;;
34403;SDS011;23116;47.660;9.126;2023-05-16T00:15:28;1.85;;;1.75;;
34403;SDS011;23116;47.660;9.126;2023-05-16T00:17:56;1.58;;;1.48;;
34403;SDS011;23116;47.660;9.126;2023-05-16T00:20:26;2.15;;;1.50;;
34403;SDS011;23116;47.660;9.126;2023-05-16T00:22:54;1.70;;;1.60;;
34403;SDS011;23116;47.660;9.126;2023-05-16T00:25:25;2.30;;;1.95;;
34403;SDS011;23116;47.660;9.126;2023-05-16T00:27:52;2.08;;;1.98;;
34403;SDS011;23116;47.660;9.126;2023-05-16T00:30:19;2.22;;;2.03;;
34403;SDS011;23116;47.660;9.126;2023-05-16T00:32:46;2.47;;;2.28;;
34403;SDS011;23116;47.660;9.126;2023-05-16T00:35:14;2.15;;;1.95;;
34403;SDS011;23116;47.660;9.126;2023-05-16T00:37:41;2.10;;;1.90;;
34403;SDS011;23116;47.660;9.126;2023-05-16T00:40:08;2.13;;;1.95;;
34403;SDS011;23116;47.660;9.126;2023-05-16T00:42:37;1.90;;;1.80;;
34403;SDS011;23116;47.660;9.126;2023-05-16T00:45:05;1.83;;;1.73;;
34403;SDS011;23116;47.660;9.126;2023-05-16T00:47:33;2.20;;;2.00;;
34403;SDS011;23116;47.660;9.126;2023-05-16T00:50:00;2.13;;;1.92;;
34403;SDS011;23116;47.660;9.126;2023-05-16T00:52:30;2.50;;;1.70;;
34403;SDS011;23116;47.660;9.126;2023-05-16T00:54:57;2.03;;;1.80;;
34403;SDS011;23116;47.660;9.126;2023-05-16T00:57:25;1.92;;;1.80;;
34403;SDS011;23116;47.660;9.126;2023-05-16T00:59:52;1.58;;;1.48;;
34403;SDS011;23116;47.660;9.126;2023-05-16T01:02:20;1.80;;;1.70;;
34403;SDS011;23116;47.660;9.126;2023-05-16T01:04:52;1.55;;;1.45;;
34403;SDS011;23116;47.660;9.126;2023-05-16T01:07:20;1.60;;;1.50;;
34403;SDS011;23116;47.660;9.126;2023-05-16T01:09:47;1.80;;;1.70;;
34403;SDS011;23116;47.660;9.126;2023-05-16T01:15:08;2.30;;;2.10;;
34403;SDS011;23116;47.660;9.126;2023-05-16T01:17:44;1.63;;;1.52;;
34403;SDS011;23116;47.660;9.126;2023-05-16T01:26:16;1.92;;;1.70;;
34403;SDS011;23116;47.660;9.126;2023-05-16T01:28:52;2.08;;;1.98;;
34403;SDS011;23116;47.660;9.126;2023-05-16T01:31:21;2.15;;;1.98;;
34403;SDS011;23116;47.660;9.126;2023-05-16T01:33:48;2.00;;;1.90;;
34403;SDS011;23116;47.660;9.126;2023-05-16T01:42:11;2.28;;;2.08;;
34403;SDS011;23116;47.660;9.126;2023-05-16T01:44:41;3.15;;;1.95;;
34403;SDS011;23116;47.660;9.126;2023-05-16T01:47:21;3.15;;;2.45;;
34403;SDS011;23116;47.660;9.126;2023-05-16T01:49:58;2.40;;;2.20;;
34403;SDS011;23116;47.660;9.126;2023-05-16T01:55:46;2.25;;;2.10;;
34403;SDS011;23116;47.660;9.126;2023-05-16T01:58:21;2.03;;;1.90;;
34403;SDS011;23116;47.660;9.126;2023-05-16T02:01:10;2.35;;;2.15;;
34403;SDS011;23116;47.660;9.126;2023-05-16T02:03:39;2.90;;;2.22;;
34403;SDS011;23116;47.660;9.126;2023-05-16T02:06:06;1.90;;;1.80;;
34403;SDS011;23116;47.660;9.126;2023-05-16T02:08:33;2.20;;;2.00;;
34403;SDS011;23116;47.660;9.126;2023-05-16T02:11:00;2.20;;;2.00;;
34403;SDS011;23116;47.660;9.126;2023-05-16T02:13:27;2.45;;;2.25;;
34403;SDS011;23116;47.660;9.126;2023-05-16T02:15:54;2.17;;;1.98;;
34403;SDS011;23116;47.660;9.126;2023-05-16T02:18:21;3.22;;;1.60;;
34403;SDS011;23116;47.660;9.126;2023-05-16T02:20:49;3.00;;;1.67;;
34403;SDS011;23116;47.660;9.126;2023-05-16T02:23:16;2.20;;;2.00;;
34403;SDS011;23116;47.660;9.126;2023-05-16T02:25:43;2.20;;;2.03;;
34403;SDS011;23116;47.660;9.126;2023-05-16T02:28:10;2.75;;;2.05;;
34403;SDS011;23116;47.660;9.126;2023-05-16T02:30:38;2.40;;;2.20;;
34403;SDS011;23116;47.660;9.126;2023-05-16T02:33:05;2.65;;;2.45;;
34403;SDS011;23116;47.660;9.126;2023-05-16T02:35:32;2.63;;;2.42;;
34403;SDS011;23116;47.660;9.126;2023-05-16T02:37:59;2.25;;;2.05;;
34403;SDS011;23116;47.660;9.126;2023-05-16T02:40:26;2.85;;;2.65;;
34403;SDS011;23116;47.660;9.126;2023-05-16T02:42:53;2.65;;;2.45;;
34403;SDS011;23116;47.660;9.126;2023-05-16T02:45:21;2.90;;;2.70;;
34403;SDS011;23116;47.660;9.126;2023-05-16T02:47:48;2.60;;;2.40;;
34403;SDS011;23116;47.660;9.126;2023-05-16T02:50:15;2.80;;;2.60;;
34403;SDS011;23116;47.660;9.126;2023-05-16T02:52:42;2.28;;;2.15;;
34403;SDS011;23116;47.660;9.126;2023-05-16T02:55:09;3.42;;;3.00;;
34403;SDS011;23116;47.660;9.126;2023-05-16T02:57:36;3.28;;;3.00;;
34403;SDS011;23116;47.660;9.126;2023-05-16T03:00:04;3.60;;;2.95;;
34403;SDS011;23116;47.660;9.126;2023-05-16T03:02:33;4.38;;;2.65;;
34403;SDS011;23116;47.660;9.126;2023-05-16T03:05:01;3.10;;;2.80;;
34403;SDS011;23116;47.660;9.126;2023-05-16T03:07:29;2.95;;;2.67;;
34403;SDS011;23116;47.660;9.126;2023-05-16T03:09:56;5.43;;;2.38;;
34403;SDS011;23116;47.660;9.126;2023-05-16T03:12:23;2.92;;;2.63;;
34403;SDS011;23116;47.660;9.126;2023-05-16T03:14:50;2.85;;;2.65;;
34403;SDS011;23116;47.660;9.126;2023-05-16T03:17:17;2.95;;;2.38;;
34403;SDS011;23116;47.660;9.126;2023-05-16T03:19:45;2.63;;;2.42;;
34403;SDS011;23116;47.660;9.126;2023-05-16T03:22:12;2.78;;;2.15;;
34403;SDS011;23116;47.660;9.126;2023-05-16T03:24:39;2.63;;;2.42;;
34403;SDS011;23116;47.660;9.126;2023-05-16T03:27:06;2.42;;;2.22;;
34403;SDS011;23116;47.660;9.126;2023-05-16T03:29:33;2.63;;;2.42;;
34403;SDS011;23116;47.660;9.126;2023-05-16T03:32:01;2.50;;;2.30;;
34403;SDS011;23116;47.660;9.126;2023-05-16T03:34:29;2.60;;;2.40;;
34403;SDS011;23116;47.660;9.126;2023-05-16T03:36:56;3.00;;;2.70;;
34403;SDS011;23116;47.660;9.126;2023-05-16T03:39:23;2.78;;;2.40;;
34403;SDS011;23116;47.660;9.126;2023-05-16T03:41:50;4.50;;;2.53;;
34403;SDS011;23116;47.660;9.126;2023-05-16T03:44:20;2.55;;;2.35;;
34403;SDS011;23116;47.660;9.126;2023-05-16T03:46:47;3.13;;;2.85;;
34403;SDS011;23116;47.660;9.126;2023-05-16T03:49:16;2.60;;;2.40;;
34403;SDS011;23116;47.660;9.126;2023-05-16T03:51:45;3.65;;;2.60;;
34403;SDS011;23116;47.660;9.126;2023-05-16T03:54:12;3.17;;;2.70;;
34403;SDS011;23116;47.660;9.126;2023-05-16T03:56:39;2.83;;;2.63;;
34403;SDS011;23116;47.660;9.126;2023-05-16T03:59:06;2.90;;;2.17;;
34403;SDS011;23116;47.660;9.126;2023-05-16T04:01:33;2.60;;;2.40;;
34403;SDS011;23116;47.660;9.126;2023-05-16T04:04:00;4.40;;;2.63;;
34403;SDS011;23116;47.660;9.126;2023-05-16T04:06:27;2.30;;;2.15;;
34403;SDS011;23116;47.660;9.126;2023-05-16T04:08:54;2.90;;;2.70;;
34403;SDS011;23116;47.660;9.126;2023-05-16T04:11:21;2.72;;;2.53;;
34403;SDS011;23116;47.660;9.126;2023-05-16T04:13:48;3.10;;;2.80;;
34403;SDS011;23116;47.660;9.126;2023-05-16T04:16:16;3.33;;;3.03;;
34403;SDS011;23116;47.660;9.126;2023-05-16T04:18:43;3.47;;;3.17;;
34403;SDS011;23116;47.660;9.126;2023-05-16T04:21:11;3.92;;;3.17;;
34403;SDS011;23116;47.660;9.126;2023-05-16T04:23:39;2.90;;;2.70;;
34403;SDS011;23116;47.660;9.126;2023-05-16T04:26:06;3.13;;;2.85;;
34403;SDS011;23116;47.660;9.126;2023-05-16T04:28:33;2.50;;;2.30;;
34403;SDS011;23116;47.660;9.126;2023-05-16T04:31:01;2.72;;;2.53;;
34403;SDS011;23116;47.660;9.126;2023-05-16T04:33:28;2.67;;;2.40;;
34403;SDS011;23116;47.660;9.126;2023-05-16T04:35:55;2.80;;;2.60;;
34403;SDS011;23116;47.660;9.126;2023-05-16T04:38:23;2.70;;;2.50;;
34403;SDS011;23116;47.660;9.126;2023-05-16T04:40:50;2.65;;;2.30;;
34403;SDS011;23116;47.660;9.126;2023-05-16T04:43:18;2.85;;;2.65;;
34403;SDS011;23116;47.660;9.126;2023-05-16T04:45:45;2.63;;;2.20;;
34403;SDS011;23116;47.660;9.126;2023-05-16T04:48:13;3.53;;;2.15;;
34403;SDS011;23116;47.660;9.126;2023-05-16T04:50:41;2.38;;;2.17;;
34403;SDS011;23116;47.660;9.126;2023-05-16T04:53:08;1.80;;;1.70;;
34403;SDS011;23116;47.660;9.126;2023-05-16T04:55:35;1.95;;;1.75;;
34403;SDS011;23116;47.660;9.126;2023-05-16T04:58:02;1.83;;;1.73;;
34403;SDS011;23116;47.660;9.126;2023-05-16T05:00:29;1.98;;;1.88;;
34403;SDS011;23116;47.660;9.126;2023-05-16T05:02:57;2.22;;;2.08;;
34403;SDS011;23116;47.660;9.126;2023-05-16T05:05:24;2.30;;;2.10;;
34403;SDS011;23116;47.660;9.126;2023-05-16T05:07:51;3.03;;;2.20;;
34403;SDS011;23116;47.660;9.126;2023-05-16T05:10:18;1.83;;;1.73;;
34403;SDS011;23116;47.660;9.126;2023-05-16T05:12:45;2.50;;;2.30;;
34403;SDS011;23116;47.660;9.126;2023-05-16T05:15:12;2.53;;;2.30;;
34403;SDS011;23116;47.660;9.126;2023-05-16T05:17:39;2.70;;;2.50;;
34403;SDS011;23116;47.660;9.126;2023-05-16T05:20:06;4.05;;;3.22;;
34403;SDS011;23116;47.660;9.126;2023-05-16T05:22:34;3.10;;;2.83;;
34403;SDS011;23116;47.660;9.126;2023-05-16T05:25:02;2.95;;;2.75;;
34403;SDS011;23116;47.660;9.126;2023-05-16T05:27:30;3.92;;;3.63;;
34403;SDS011;23116;47.660;9.126;2023-05-16T05:29:57;3.75;;;3.45;;
34403;SDS011;23116;47.660;9.126;2023-05-16T05:32:25;3.28;;;2.97;;
34403;SDS011;23116;47.660;9.126;2023-05-16T05:34:52;3.35;;;3.05;;
34403;SDS011;23116;47.660;9.126;2023-05-16T05:37:19;3.47;;;3.17;;
34403;SDS011;23116;47.660;9.126;2023-05-16T05:39:46;3.38;;;3.08;;
34403;SDS011;23116;47.660;9.126;2023-05-16T05:42:14;3.38;;;3.15;;
34403;SDS011;23116;47.660;9.126;2023-05-16T05:44:41;3.65;;;3.35;;
34403;SDS011;23116;47.660;9.126;2023-05-16T05:47:08;4.55;;;4.15;;
34403;SDS011;23116;47.660;9.126;2023-05-16T05:49:36;4.47;;;4.05;;
34403;SDS011;23116;47.660;9.126;2023-05-16T05:52:03;5.57;;;5.05;;
34403;SDS011;23116;47.660;9.126;2023-05-16T05:54:30;5.05;;;4.55;;
34403;SDS011;23116;47.660;9.126;2023-05-16T05:56:58;5.35;;;4.80;;
34403;SDS011;23116;47.660;9.126;2023-05-16T05:59:25;4.80;;;4.40;;
34403;SDS011;23116;47.660;9.126;2023-05-16T06:01:52;5.40;;;4.90;;
34403;SDS011;23116;47.660;9.126;2023-05-16T06:04:19;5.95;;;5.38;;
34403;SDS011;23116;47.660;9.126;2023-05-16T06:06:46;5.72;;;5.20;;
34403;SDS011;23116;47.660;9.126;2023-05-16T06:09:13;5.90;;;5.40;;
34403;SDS011;23116;47.660;9.126;2023-05-16T06:11:41;6.68;;;5.68;;
34403;SDS011;23116;47.660;9.126;2023-05-16T06:14:10;8.15;;;6.75;;
34403;SDS011;23116;47.660;9.126;2023-05-16T06:16:38;7.97;;;7.18;;
34403;SDS011;23116;47.660;9.126;2023-05-16T06:19:05;8.95;;;7.82;;
34403;SDS011;23116;47.660;9.126;2023-05-16T06:21:32;8.88;;;7.93;;
34403;SDS011;23116;47.660;9.126;2023-05-16T06:23:59;10.20;;;7.72;;
34403;SDS011;23116;47.660;9.126;2023-05-16T06:26:27;9.07;;;8.18;;
34403;SDS011;23116;47.660;9.126;2023-05-16T06:28:54;11.07;;;8.13;;
34403;SDS011;23116;47.660;9.126;2023-05-16T06:31:21;8.68;;;7.80;;
34403;SDS011;23116;47.660;9.126;2023-05-16T06:33:48;8.30;;;7.50;;
34403;SDS011;23116;47.660;9.126;2023-05-16T06:36:15;9.00;;;8.18;;
34403;SDS011;23116;47.660;9.126;2023-05-16T06:38:43;8.63;;;7.82;;
34403;SDS011;23116;47.660;9.126;2023-05-16T06:41:10;8.90;;;7.75;;
34403;SDS011;23116;47.660;9.126;2023-05-16T06:43:37;8.45;;;7.65;;
34403;SDS011;23116;47.660;9.126;2023-05-16T06:46:05;7.93;;;7.15;;
34403;SDS011;23116;47.660;9.126;2023-05-16T06:48:32;8.48;;;7.63;;
34403;SDS011;23116;47.660;9.126;2023-05-16T06:50:59;8.60;;;7.75;;
34403;SDS011;23116;47.660;9.126;2023-05-16T06:53:26;7.68;;;6.97;;
34403;SDS011;23116;47.660;9.126;2023-05-16T06:55:53;8.60;;;7.13;;
34403;SDS011;23116;47.660;9.126;2023-05-16T06:58:20;7.88;;;7.18;;
34403;SDS011;23116;47.660;9.126;2023-05-16T07:00:48;6.85;;;6.25;;
34403;SDS011;23116;47.660;9.126;2023-05-16T07:03:15;6.80;;;6.10;;
34403;SDS011;23116;47.660;9.126;2023-05-16T07:05:42;7.45;;;6.60;;
34403;SDS011;23116;47.660;9.126;2023-05-16T07:08:10;7.15;;;6.47;;
34403;SDS011;23116;47.660;9.126;2023-05-16T07:10:40;6.90;;;6.20;;
34403;SDS011;23116;47.660;9.126;2023-05-16T07:13:07;8.27;;;7.47;;
34403;SDS011;23116;47.660;9.126;2023-05-16T07:15:34;7.85;;;7.15;;
34403;SDS011;23116;47.660;9.126;2023-05-16T07:18:01;8.02;;;7.22;;
34403;SDS011;23116;47.660;9.126;2023-05-16T07:20:28;7.60;;;6.90;;
34403;SDS011;23116;47.660;9.126;2023-05-16T07:22:56;8.82;;;7.95;;
34403;SDS011;23116;47.660;9.126;2023-05-16T07:25:23;8.07;;;7.15;;
34403;SDS011;23116;47.660;9.126;2023-05-16T07:27:51;8.73;;;7.82;;
34403;SDS011;23116;47.660;9.126;2023-05-16T07:30:18;9.40;;;8.48;;
34403;SDS011;23116;47.660;9.126;2023-05-16T07:32:45;8.95;;;8.15;;
34403;SDS011;23116;47.660;9.126;2023-05-16T07:35:13;8.25;;;7.50;;
34403;SDS011;23116;47.660;9.126;2023-05-16T07:37:40;9.43;;;8.52;;
34403;SDS011;23116;47.660;9.126;2023-05-16T07:40:08;9.18;;;8.27;;
34403;SDS011;23116;47.660;9.126;2023-05-16T07:42:36;8.75;;;7.85;;
34403;SDS011;23116;47.660;9.126;2023-05-16T07:45:04;9.02;;;8.13;;
34403;SDS011;23116;47.660;9.126;2023-05-16T07:47:32;9.55;;;8.55;;
34403;SDS011;23116;47.660;9.126;2023-05-16T07:50:00;10.80;;;9.70;;
34403;SDS011;23116;47.660;9.126;2023-05-16T07:52:27;10.30;;;9.25;;
34403;SDS011;23116;47.660;9.126;2023-05-16T07:54:54;10.63;;;9.55;;
34403;SDS011;23116;47.660;9.126;2023-05-16T07:57:22;8.85;;;8.05;;
34403;SDS011;23116;47.660;9.126;2023-05-16T07:59:49;9.57;;;8.68;;
34403;SDS011;23116;47.660;9.126;2023-05-16T08:02:17;9.38;;;8.45;;
34403;SDS011;23116;47.660;9.126;2023-05-16T08:04:44;9.93;;;8.95;;
34403;SDS011;23116;47.660;9.126;2023-05-16T08:07:12;9.52;;;8.68;;
34403;SDS011;23116;47.660;9.126;2023-05-16T08:09:45;10.20;;;9.27;;
34403;SDS011;23116;47.660;9.126;2023-05-16T08:12:12;9.90;;;8.85;;
34403;SDS011;23116;47.660;9.126;2023-05-16T08:14:39;9.10;;;8.30;;
34403;SDS011;23116;47.660;9.126;2023-05-16T08:17:06;8.40;;;7.57;;
34403;SDS011;23116;47.660;9.126;2023-05-16T08:19:34;8.50;;;7.70;;
34403;SDS011;23116;47.660;9.126;2023-05-16T08:22:01;7.65;;;6.70;;
34403;SDS011;23116;47.660;9.126;2023-05-16T08:24:30;9.90;;;7.47;;
34403;SDS011;23116;47.660;9.126;2023-05-16T08:26:58;7.45;;;6.68;;
34403;SDS011;23116;47.660;9.126;2023-05-16T08:29:25;7.25;;;6.55;;
34403;SDS011;23116;47.660;9.126;2023-05-16T08:31:52;6.80;;;6.15;;
34403;SDS011;23116;47.660;9.126;2023-05-16T08:34:19;6.18;;;5.57;;
34403;SDS011;23116;47.660;9.126;2023-05-16T08:36:46;6.75;;;6.15;;
34403;SDS011;23116;47.660;9.126;2023-05-16T08:39:14;7.05;;;6.45;;
34403;SDS011;23116;47.660;9.126;2023-05-16T08:41:41;7.63;;;6.93;;
34403;SDS011;23116;47.660;9.126;2023-05-16T08:44:08;6.85;;;6.25;;
34403;SDS011;23116;47.660;9.126;2023-05-16T08:46:37;5.82;;;5.32;;
34403;SDS011;23116;47.660;9.126;2023-05-16T08:49:07;6.28;;;5.68;;
34403;SDS011;23116;47.660;9.126;2023-05-16T08:51:35;6.32;;;5.75;;
34403;SDS011;23116;47.660;9.126;2023-05-16T08:54:03;6.90;;;6.30;;
34403;SDS011;23116;47.660;9.126;2023-05-16T08:56:37;6.22;;;5.70;;
34403;SDS011;23116;47.660;9.126;2023-05-16T08:59:08;7.38;;;6.68;;
34403;SDS011;23116;47.660;9.126;2023-05-16T09:01:36;6.90;;;6.30;;
34403;SDS011;23116;47.660;9.126;2023-05-16T09:04:05;6.22;;;5.63;;
34403;SDS011;23116;47.660;9.126;2023-05-16T09:06:34;7.10;;;6.40;;
34403;SDS011;23116;47.660;9.126;2023-05-16T09:09:02;6.25;;;5.75;;
34403;SDS011;23116;47.660;9.126;2023-05-16T09:11:32;5.70;;;5.20;;
34403;SDS011;23116;47.660;9.126;2023-05-16T09:13:59;6.03;;;5.40;;
34403;SDS011;23116;47.660;9.126;2023-05-16T09:16:27;6.43;;;5.82;;
34403;SDS011;23116;47.660;9.126;2023-05-16T09:18:55;6.45;;;5.85;;
34403;SDS011;23116;47.660;9.126;2023-05-16T09:21:29;6.95;;;6.32;;
34403;SDS011;23116;47.660;9.126;2023-05-16T09:24:05;7.30;;;6.55;;
34403;SDS011;23116;47.660;9.126;2023-05-16T09:26:34;7.80;;;7.10;;
34403;SDS011;23116;47.660;9.126;2023-05-16T09:29:09;8.75;;;7.90;;
34403;SDS011;23116;47.660;9.126;2023-05-16T09:31:37;8.07;;;7.38;;
34403;SDS011;23116;47.660;9.126;2023-05-16T09:34:08;8.73;;;7.80;;
34403;SDS011;23116;47.660;9.126;2023-05-16T09:36:36;8.80;;;7.82;;
34403;SDS011;23116;47.660;9.126;2023-05-16T09:39:05;9.35;;;8.43;;
34403;SDS011;23116;47.660;9.126;2023-05-16T09:41:33;10.50;;;8.52;;
34403;SDS011;23116;47.660;9.126;2023-05-16T09:44:03;9.93;;;8.43;;
34403;SDS011;23116;47.660;9.126;2023-05-16T09:46:32;9.50;;;8.60;;
34403;SDS011;23116;47.660;9.126;2023-05-16T09:49:01;9.98;;;7.93;;
34403;SDS011;23116;47.660;9.126;2023-05-16T09:51:28;8.85;;;8.05;;
34403;SDS011;23116;47.660;9.126;2023-05-16T09:53:57;9.75;;;8.85;;
34403;SDS011;23116;47.660;9.126;2023-05-16T09:56:24;9.40;;;8.43;;
34403;SDS011;23116;47.660;9.126;2023-05-16T09:58:52;10.23;;;9.23;;
34403;SDS011;23116;47.660;9.126;2023-05-16T10:01:19;8.77;;;7.97;;
34403;SDS011;23116;47.660;9.126;2023-05-16T10:03:47;8.88;;;8.05;;
34403;SDS011;23116;47.660;9.126;2023-05-16T10:06:14;8.80;;;7.78;;
34403;SDS011;23116;47.660;9.126;2023-05-16T10:08:43;8.05;;;7.25;;
34403;SDS011;23116;47.660;9.126;2023-05-16T10:11:10;8.85;;;8.05;;
34403;SDS011;23116;47.660;9.126;2023-05-16T10:13:38;8.70;;;7.90;;
34403;SDS011;23116;47.660;9.126;2023-05-16T10:16:07;7.82;;;7.05;;
34403;SDS011;23116;47.660;9.126;2023-05-16T10:18:38;9.35;;;8.35;;
34403;SDS011;23116;47.660;9.126;2023-05-16T10:21:07;8.68;;;7.88;;
34403;SDS011;23116;47.660;9.126;2023-05-16T10:23:42;10.85;;;9.75;;
34403;SDS011;23116;47.660;9.126;2023-05-16T10:26:15;9.80;;;8.88;;
34403;SDS011;23116;47.660;9.126;2023-05-16T10:28:45;10.50;;;9.43;;
34403;SDS011;23116;47.660;9.126;2023-05-16T10:31:14;9.02;;;8.23;;
34403;SDS011;23116;47.660;9.126;2023-05-16T10:33:41;9.20;;;8.30;;
34403;SDS011;23116;47.660;9.126;2023-05-16T10:36:08;9.13;;;8.23;;
34403;SDS011;23116;47.660;9.126;2023-05-16T10:38:36;9.38;;;8.45;;
34403;SDS011;23116;47.660;9.126;2023-05-16T10:41:04;10.43;;;9.43;;
34403;SDS011;23116;47.660;9.126;2023-05-16T10:43:33;10.18;;;9.18;;
34403;SDS011;23116;47.660;9.126;2023-05-16T10:46:04;10.20;;;9.23;;
34403;SDS011;23116;47.660;9.126;2023-05-16T10:48:36;9.75;;;8.85;;
34403;SDS011;23116;47.660;9.126;2023-05-16T10:54:08;9.40;;;8.50;;
34403;SDS011;23116;47.660;9.126;2023-05-16T10:56:38;8.15;;;7.40;;
34403;SDS011;23116;47.660;9.126;2023-05-16T10:59:22;9.65;;;8.75;;
34403;SDS011;23116;47.660;9.126;2023-05-16T11:01:51;10.27;;;9.25;;
34403;SDS011;23116;47.660;9.126;2023-05-16T11:04:20;10.43;;;9.50;;
34403;SDS011;23116;47.660;9.126;2023-05-16T11:06:51;11.18;;;10.07;;
34403;SDS011;23116;47.660;9.126;2023-05-16T11:09:21;10.73;;;9.73;;
34403;SDS011;23116;47.660;9.126;2023-05-16T11:17:06;9.77;;;8.75;;
34403;SDS011;23116;47.660;9.126;2023-05-16T11:27:33;8.60;;;7.80;;
34403;SDS011;23116;47.660;9.126;2023-05-16T11:32:34;9.40;;;8.40;;
34403;SDS011;23116;47.660;9.126;2023-05-16T11:35:05;8.73;;;7.82;;
34403;SDS011;23116;47.660;9.126;2023-05-16T11:37:34;11.40;;;8.98;;
34403;SDS011;23116;47.660;9.126;2023-05-16T11:40:06;9.02;;;8.10;;
34403;SDS011;23116;47.660;9.126;2023-05-16T11:42:37;8.20;;;7.40;;
34403;SDS011;23116;47.660;9.126;2023-05-16T11:45:15;8.55;;;7.28;;
34403;SDS011;23116;47.660;9.126;2023-05-16T11:47:49;8.10;;;7.30;;
34403;SDS011;23116;47.660;9.126;2023-05-16T11:50:17;8.90;;;7.70;;
34403;SDS011;23116;47.660;9.126;2023-05-16T11:52:49;8.35;;;7.53;;
34403;SDS011;23116;47.660;9.126;2023-05-16T11:55:19;8.35;;;7.55;;
34403;SDS011;23116;47.660;9.126;2023-05-16T11:57:51;6.85;;;6.20;;
34403;SDS011;23116;47.660;9.126;2023-05-16T12:00:20;8.98;;;8.07;;
34403;SDS011;23116;47.660;9.126;2023-05-16T12:02:49;6.80;;;6.10;;
34403;SDS011;23116;47.660;9.126;2023-05-16T12:05:19;7.63;;;6.93;;
34403;SDS011;23116;47.660;9.126;2023-05-16T12:07:52;7.22;;;6.55;;
34403;SDS011;23116;47.660;9.126;2023-05-16T12:10:19;6.60;;;6.00;;
34403;SDS011;23116;47.660;9.126;2023-05-16T12:12:48;7.22;;;6.53;;
34403;SDS011;23116;47.660;9.126;2023-05-16T12:15:16;5.50;;;5.10;;
34403;SDS011;23116;47.660;9.126;2023-05-16T12:17:45;6.25;;;5.65;;
34403;SDS011;23116;47.660;9.126;2023-05-16T12:20:12;6.13;;;5.63;;
34403;SDS011;23116;47.660;9.126;2023-05-16T12:22:41;5.97;;;5.18;;
34403;SDS011;23116;47.660;9.126;2023-05-16T12:27:56;5.63;;;5.13;;
34403;SDS011;23116;47.660;9.126;2023-05-16T12:30:25;5.68;;;5.10;;
34403;SDS011;23116;47.660;9.126;2023-05-16T12:32:57;4.47;;;4.07;;
34403;SDS011;23116;47.660;9.126;2023-05-16T12:35:39;3.92;;;3.55;;
34403;SDS011;23116;47.660;9.126;2023-05-16T12:38:12;3.92;;;3.63;;
34403;SDS011;23116;47.660;9.126;2023-05-16T12:40:42;3.97;;;3.67;;
34403;SDS011;23116;47.660;9.126;2023-05-16T12:43:16;4.15;;;3.85;;
34403;SDS011;23116;47.660;9.126;2023-05-16T12:45:53;5.15;;;4.65;;
34403;SDS011;23116;47.660;9.126;2023-05-16T12:48:22;4.53;;;4.13;;
34403;SDS011;23116;47.660;9.126;2023-05-16T12:53:42;4.65;;;4.25;;
34403;SDS011;23116;47.660;9.126;2023-05-16T12:56:11;4.10;;;3.70;;
34403;SDS011;23116;47.660;9.126;2023-05-16T12:58:40;4.70;;;4.30;;
34403;SDS011;23116;47.660;9.126;2023-05-16T13:01:07;4.57;;;4.20;;
34403;SDS011;23116;47.660;9.126;2023-05-16T13:03:35;4.57;;;4.25;;
34403;SDS011;23116;47.660;9.126;2023-05-16T13:06:02;4.65;;;4.25;;
34403;SDS011;23116;47.660;9.126;2023-05-16T13:08:30;3.88;;;3.58;;
34403;SDS011;23116;47.660;9.126;2023-05-16T13:10:57;4.20;;;3.90;;
34403;SDS011;23116;47.660;9.126;2023-05-16T13:13:24;4.28;;;3.88;;
34403;SDS011;23116;47.660;9.126;2023-05-16T13:15:51;4.35;;;3.95;;
34403;SDS011;23116;47.660;9.126;2023-05-16T13:18:19;4.18;;;3.88;;
34403;SDS011;23116;47.660;9.126;2023-05-16T13:20:47;4.47;;;4.05;;
34403;SDS011;23116;47.660;9.126;2023-05-16T13:23:15;4.15;;;3.85;;
34403;SDS011;23116;47.660;9.126;2023-05-16T13:25:42;4.20;;;3.80;;
34403;SDS011;23116;47.660;9.126;2023-05-16T13:28:09;4.72;;;4.25;;
34403;SDS011;23116;47.660;9.126;2023-05-16T13:30:36;4.50;;;4.10;;
34403;SDS011;23116;47.660;9.126;2023-05-16T13:33:03;4.60;;;4.20;;
34403;SDS011;23116;47.660;9.126;2023-05-16T13:35:30;4.13;;;3.70;;
34403;SDS011;23116;47.660;9.126;2023-05-16T13:37:58;3.30;;;3.10;;
34403;SDS011;23116;47.660;9.126;2023-05-16T13:40:25;4.53;;;3.72;;
34403;SDS011;23116;47.660;9.126;2023-05-16T13:42:53;3.90;;;3.60;;
34403;SDS011;23116;47.660;9.126;2023-05-16T13:45:21;4.25;;;3.85;;
34403;SDS011;23116;47.660;9.126;2023-05-16T13:47:48;3.90;;;3.53;;
34403;SDS011;23116;47.660;9.126;2023-05-16T13:50:15;4.47;;;4.10;;
34403;SDS011;23116;47.660;9.126;2023-05-16T13:52:42;3.90;;;3.60;;
34403;SDS011;23116;47.660;9.126;2023-05-16T13:55:11;4.30;;;3.90;;
34403;SDS011;23116;47.660;9.126;2023-05-16T13:57:38;4.38;;;4.07;;
34403;SDS011;23116;47.660;9.126;2023-05-16T14:00:06;4.07;;;3.78;;
34403;SDS011;23116;47.660;9.126;2023-05-16T14:02:38;4.10;;;3.80;;
34403;SDS011;23116;47.660;9.126;2023-05-16T14:05:06;4.18;;;3.80;;
34403;SDS011;23116;47.660;9.126;2023-05-16T14:07:34;4.00;;;3.70;;
34403;SDS011;23116;47.660;9.126;2023-05-16T14:10:01;4.07;;;3.78;;
34403;SDS011;23116;47.660;9.126;2023-05-16T14:12:30;4.00;;;3.70;;
34403;SDS011;23116;47.660;9.126;2023-05-16T14:14:58;4.30;;;4.00;;
34403;SDS011;23116;47.660;9.126;2023-05-16T14:17:25;4.55;;;4.15;;
34403;SDS011;23116;47.660;9.126;2023-05-16T14:19:52;5.22;;;4.00;;
34403;SDS011;23116;47.660;9.126;2023-05-16T14:22:19;5.85;;;4.03;;
34403;SDS011;23116;47.660;9.126;2023-05-16T14:24:46;3.67;;;3.38;;
34403;SDS011;23116;47.660;9.126;2023-05-16T14:27:13;5.18;;;4.10;;
34403;SDS011;23116;47.660;9.126;2023-05-16T14:29:41;5.10;;;4.70;;
34403;SDS011;23116;47.660;9.126;2023-05-16T14:32:09;4.72;;;4.32;;
34403;SDS011;23116;47.660;9.126;2023-05-16T14:34:36;4.90;;;4.47;;
34403;SDS011;23116;47.660;9.126;2023-05-16T14:37:03;5.82;;;5.32;;
34403;SDS011;23116;47.660;9.126;2023-05-16T14:39:30;4.97;;;4.57;;
34403;SDS011;23116;47.660;9.126;2023-05-16T14:41:58;4.63;;;4.22;;
34403;SDS011;23116;47.660;9.126;2023-05-16T14:44:25;4.60;;;4.20;;
34403;SDS011;23116;47.660;9.126;2023-05-16T14:46:52;4.53;;;4.13;;
34403;SDS011;23116;47.660;9.126;2023-05-16T14:49:19;4.97;;;4.57;;
34403;SDS011;23116;47.660;9.126;2023-05-16T14:51:46;5.45;;;4.80;;
34403;SDS011;23116;47.660;9.126;2023-05-16T14:54:14;6.00;;;5.25;;
34403;SDS011;23116;47.660;9.126;2023-05-16T14:56:43;5.80;;;5.30;;
34403;SDS011;23116;47.660;9.126;2023-05-16T14:59:10;5.95;;;5.45;;
34403;SDS011;23116;47.660;9.126;2023-05-16T15:01:37;6.00;;;5.50;;
34403;SDS011;23116;47.660;9.126;2023-05-16T15:04:05;5.90;;;5.40;;
34403;SDS011;23116;47.660;9.126;2023-05-16T15:06:32;7.80;;;7.10;;
34403;SDS011;23116;47.660;9.126;2023-05-16T15:08:59;6.90;;;6.30;;
34403;SDS011;23116;47.660;9.126;2023-05-16T15:11:27;8.68;;;6.15;;
34403;SDS011;23116;47.660;9.126;2023-05-16T15:13:56;6.15;;;5.55;;
34403;SDS011;23116;47.660;9.126;2023-05-16T15:16:23;6.53;;;5.68;;
34403;SDS011;23116;47.660;9.126;2023-05-16T15:18:50;5.47;;;4.97;;
34403;SDS011;23116;47.660;9.126;2023-05-16T15:21:17;5.47;;;4.97;;
34403;SDS011;23116;47.660;9.126;2023-05-16T15:23:44;3.42;;;3.13;;
34403;SDS011;23116;47.660;9.126;2023-05-16T15:26:13;3.63;;;3.33;;
34403;SDS011;23116;47.660;9.126;2023-05-16T15:28:42;3.55;;;3.25;;
34403;SDS011;23116;47.660;9.126;2023-05-16T15:31:09;2.58;;;2.38;;
34403;SDS011;23116;47.660;9.126;2023-05-16T15:33:36;2.55;;;2.35;;
34403;SDS011;23116;47.660;9.126;2023-05-16T15:36:03;2.17;;;2.03;;